createdAt,value
2019-02-12T00:00:31.229Z,3.83
2019-02-12T00:03:02.123Z,5.47
2019-02-12T00:05:33.036Z,6.67
2019-02-12T00:08:03.931Z,5.33
2019-02-12T00:10:34.861Z,4.33
2019-02-12T00:13:05.752Z,3.80
2019-02-12T00:15:36.653Z,2.60
2019-02-12T00:18:07.619Z,2.37
2019-02-12T00:20:38.528Z,3.23
2019-02-12T00:23:09.418Z,2.20
2019-02-12T00:25:40.378Z,2.30
2019-02-12T00:28:11.274Z,3.00
2019-02-12T00:30:42.201Z,1.70
2019-02-12T00:33:13.090Z,1.90
2019-02-12T00:35:44.011Z,1.50
2019-02-12T00:38:14.916Z,1.60
2019-02-12T00:40:45.839Z,2.10
2019-02-12T00:43:16.727Z,2.13
2019-02-12T00:45:47.647Z,2.77
2019-02-12T00:48:18.557Z,2.50
2019-02-12T00:50:49.639Z,2.57
2019-02-12T00:53:20.531Z,2.67
2019-02-12T00:55:51.468Z,2.53
2019-02-12T00:58:23.182Z,2.20
2019-02-12T01:00:54.126Z,2.90
2019-02-12T01:03:24.998Z,1.90
2019-02-12T01:05:55.925Z,2.23
2019-02-12T01:08:26.800Z,1.73
2019-02-12T01:10:57.756Z,2.00
2019-02-12T01:13:28.646Z,2.60
2019-02-12T01:15:59.555Z,2.20
2019-02-12T01:18:30.454Z,3.00
2019-02-12T01:21:01.353Z,2.60
2019-02-12T01:23:32.244Z,2.80
2019-02-12T01:26:03.204Z,3.03
2019-02-12T01:28:34.169Z,2.30
2019-02-12T01:31:05.080Z,1.90
2019-02-12T01:33:35.986Z,2.13
2019-02-12T01:36:06.898Z,2.00
2019-02-12T01:38:37.789Z,2.60
2019-02-12T01:41:08.758Z,1.97
2019-02-12T01:43:39.574Z,1.70
2019-02-12T01:46:10.484Z,1.97
2019-02-12T01:48:41.378Z,2.00
2019-02-12T01:51:12.296Z,1.83
2019-02-12T01:53:43.181Z,1.60
2019-02-12T01:56:14.118Z,1.73
2019-02-12T01:58:44.998Z,1.50
2019-02-12T02:01:15.918Z,1.57
2019-02-12T02:03:47.083Z,1.13
2019-02-12T02:06:17.993Z,1.40
2019-02-12T02:08:48.882Z,1.07
2019-02-12T02:11:19.852Z,1.67
2019-02-12T02:13:50.734Z,1.90
2019-02-12T02:16:21.735Z,2.40
2019-02-12T02:18:52.624Z,1.70
2019-02-12T02:21:23.550Z,2.27
2019-02-12T02:23:54.436Z,1.50
2019-02-12T02:26:25.556Z,2.03
2019-02-12T02:28:56.447Z,2.27
2019-02-12T02:31:27.364Z,1.60
2019-02-12T02:33:58.269Z,1.50
2019-02-12T02:36:29.204Z,1.43
2019-02-12T02:39:00.094Z,1.53
2019-02-12T02:41:31.035Z,1.30
2019-02-12T02:44:01.921Z,1.20
2019-02-12T02:46:32.827Z,1.40
2019-02-12T02:49:03.715Z,1.67
2019-02-12T02:51:34.699Z,2.70
2019-02-12T02:54:05.612Z,1.87
2019-02-12T02:56:36.553Z,1.80
2019-02-12T02:59:07.447Z,1.60
2019-02-12T03:01:38.361Z,1.20
2019-02-12T03:04:09.247Z,1.40
2019-02-12T03:06:40.183Z,1.17
2019-02-12T03:09:11.054Z,1.30
2019-02-12T03:11:42.046Z,1.43
2019-02-12T03:14:12.939Z,1.40
2019-02-12T03:16:43.852Z,1.83
2019-02-12T03:19:14.741Z,1.37
2019-02-12T03:21:45.679Z,1.30
2019-02-12T03:24:16.552Z,1.70
2019-02-12T03:26:47.832Z,1.70
2019-02-12T03:29:18.736Z,1.30
2019-02-12T03:31:49.646Z,1.70
2019-02-12T03:34:20.537Z,1.30
2019-02-12T03:36:51.494Z,1.50
2019-02-12T03:39:22.370Z,1.50
2019-02-12T03:41:53.340Z,2.03
2019-02-12T03:44:24.217Z,1.43
2019-02-12T03:46:55.139Z,1.53
2019-02-12T03:49:26.041Z,1.50
2019-02-12T03:51:57.233Z,1.70
2019-02-12T03:54:28.076Z,1.60
2019-02-12T03:56:59.053Z,1.47
2019-02-12T03:59:29.946Z,1.40
2019-02-12T04:02:00.874Z,1.30
2019-02-12T04:04:31.756Z,1.57
2019-02-12T04:07:02.680Z,1.60
2019-02-12T04:09:33.568Z,1.40
2019-02-12T04:12:04.672Z,1.50
2019-02-12T04:14:35.573Z,2.00
2019-02-12T04:17:06.485Z,2.70
2019-02-12T04:19:37.377Z,1.77
2019-02-12T04:22:08.313Z,1.60
2019-02-12T04:24:39.213Z,1.80
2019-02-12T04:27:10.305Z,1.27
2019-02-12T04:29:41.210Z,1.03
2019-02-12T04:32:12.125Z,1.47
2019-02-12T04:34:43.004Z,1.40
2019-02-12T04:37:13.925Z,1.37
2019-02-12T04:39:44.810Z,2.10
2019-02-12T04:42:15.790Z,1.40
2019-02-12T04:44:46.688Z,1.30
2019-02-12T04:47:18.193Z,1.43
2019-02-12T04:49:49.110Z,1.50
2019-02-12T04:52:20.030Z,1.33
2019-02-12T04:54:50.916Z,1.60
2019-02-12T04:57:21.924Z,1.43
2019-02-12T04:59:53.580Z,1.70
2019-02-12T05:02:24.502Z,1.87
2019-02-12T05:04:55.401Z,2.00
2019-02-12T05:07:26.321Z,2.17
2019-02-12T05:09:57.220Z,2.03
2019-02-12T05:12:28.161Z,3.20
2019-02-12T05:14:59.033Z,1.90
2019-02-12T05:17:30.076Z,2.20
2019-02-12T05:20:00.968Z,1.93
2019-02-12T05:22:42.863Z,1.60
2019-02-12T05:25:05.492Z,2.07
2019-02-12T05:27:36.484Z,2.60
2019-02-12T05:30:12.529Z,3.80
2019-02-12T05:32:43.440Z,4.00
2019-02-12T05:35:14.337Z,6.20
2019-02-12T05:37:45.261Z,4.77
2019-02-12T05:40:16.143Z,2.43
2019-02-12T05:42:47.094Z,5.60
2019-02-12T05:45:18.013Z,5.40
2019-02-12T05:47:49.666Z,6.03
2019-02-12T05:50:20.577Z,8.03
2019-02-12T05:52:54.417Z,4.37
2019-02-12T05:55:24.090Z,2.93
2019-02-12T05:57:55.042Z,2.83
2019-02-12T06:00:28.378Z,2.83
2019-02-12T06:02:59.292Z,2.70
2019-02-12T06:05:30.693Z,3.03
2019-02-12T06:08:01.610Z,2.90
2019-02-12T06:10:33.240Z,3.37
2019-02-12T06:13:04.202Z,2.87
2019-02-12T06:15:35.082Z,2.60
2019-02-12T06:18:06.011Z,3.20
2019-02-12T06:20:36.898Z,2.40
2019-02-12T06:23:07.809Z,2.30
2019-02-12T06:25:38.701Z,2.90
2019-02-12T06:28:09.661Z,2.97
2019-02-12T06:30:40.561Z,11.40
2019-02-12T06:33:12.204Z,5.70
2019-02-12T06:35:43.113Z,6.87
2019-02-12T06:38:14.027Z,5.70
2019-02-12T06:40:44.926Z,8.90
2019-02-12T06:43:16.121Z,7.00
2019-02-12T06:45:47.019Z,10.83
2019-02-12T06:48:17.933Z,12.03
2019-02-12T06:50:48.827Z,4.90
2019-02-12T06:53:19.754Z,2.80
2019-02-12T06:55:50.644Z,2.20
2019-02-12T06:58:21.604Z,2.60
2019-02-12T07:00:53.399Z,2.70
2019-02-12T07:03:24.378Z,2.27
2019-02-12T07:06:16.396Z,2.87
2019-02-12T07:08:56.074Z,2.97
2019-02-12T07:11:47.963Z,2.10
2019-02-12T07:14:36.703Z,2.47
2019-02-12T07:17:13.178Z,19.70
2019-02-12T07:20:20.335Z,6.40
2019-02-12T07:23:03.307Z,5.70
2019-02-12T07:25:57.855Z,5.67
2019-02-12T07:28:49.485Z,5.53
2019-02-12T07:31:29.169Z,6.67
2019-02-12T07:34:12.131Z,4.93
2019-02-12T07:37:05.671Z,5.67
2019-02-12T07:39:54.432Z,5.60
2019-02-12T07:42:46.320Z,2.23
2019-02-12T07:45:31.493Z,5.37
2019-02-12T07:48:14.497Z,15.67
2019-02-12T07:51:00.038Z,12.10
2019-02-12T07:53:33.884Z,16.10
2019-02-12T07:56:13.490Z,35.03
2019-02-12T07:59:10.304Z,25.57
2019-02-12T08:01:47.280Z,6.80
2019-02-12T08:04:33.212Z,28.93
2019-02-12T08:07:09.789Z,12.00
2019-02-12T08:10:06.617Z,30.30
2019-02-12T08:12:46.364Z,9.80
2019-02-12T08:15:23.219Z,31.00
2019-02-12T08:17:59.624Z,41.50
2019-02-12T08:20:39.107Z,8.70
2019-02-12T08:23:21.917Z,3.40
2019-02-12T08:25:58.476Z,22.17
2019-02-12T08:28:52.177Z,24.00
2019-02-12T08:31:28.800Z,23.63
2019-02-12T08:34:23.277Z,5.40
2019-02-12T08:37:02.747Z,3.80
2019-02-12T08:39:56.084Z,12.37
2019-02-12T08:42:44.700Z,7.03
2019-02-12T08:45:45.518Z,5.50
2019-02-12T08:48:49.705Z,7.20
2019-02-12T08:51:26.470Z,10.40
2019-02-12T08:54:21.601Z,7.13
2019-02-12T08:57:15.321Z,9.40
2019-02-12T08:59:49.169Z,6.40
2019-02-12T09:02:37.591Z,5.23
2019-02-12T09:05:35.496Z,4.67
2019-02-12T09:08:21.160Z,4.90
2019-02-12T09:11:00.701Z,3.70
2019-02-12T09:13:43.779Z,9.87
2019-02-12T09:16:35.129Z,8.37
2019-02-12T09:19:17.801Z,7.93
2019-02-12T09:22:09.516Z,6.37
2019-02-12T09:24:55.067Z,8.03
2019-02-12T09:27:34.824Z,4.57
2019-02-12T09:30:23.535Z,10.40
2019-02-12T09:32:57.365Z,4.60
2019-02-12T09:35:31.251Z,2.13
2019-02-12T09:38:10.894Z,22.43
2019-02-12T09:40:44.733Z,13.43
2019-02-12T09:43:44.067Z,3.80
2019-02-12T09:46:38.287Z,20.53
2019-02-12T09:49:14.880Z,4.53
2019-02-12T09:51:48.771Z,12.47
2019-02-12T09:54:25.159Z,10.83
2019-02-12T09:57:01.764Z,11.67
2019-02-12T09:59:50.853Z,3.53
2019-02-12T10:02:36.497Z,9.10
2019-02-12T10:05:22.136Z,10.80
2019-02-12T10:08:15.398Z,11.40
2019-02-12T10:11:10.135Z,5.53
2019-02-12T10:13:46.935Z,4.27
2019-02-12T10:16:23.755Z,4.87
2019-02-12T10:18:57.571Z,20.07
2019-02-12T10:21:47.976Z,10.57
2019-02-12T10:24:42.999Z,12.13
2019-02-12T10:27:28.972Z,6.00
2019-02-12T10:30:20.085Z,12.27
2019-02-12T10:32:51.043Z,9.37
2019-02-12T10:35:21.938Z,4.40
2019-02-12T10:37:52.859Z,7.43
2019-02-12T10:40:23.773Z,6.83
2019-02-12T10:42:54.692Z,3.63
2019-02-12T10:45:25.949Z,9.07
2019-02-12T10:47:57.148Z,25.63
2019-02-12T10:50:28.050Z,12.20
2019-02-12T10:52:58.993Z,13.67
2019-02-12T10:55:30.060Z,16.73
2019-02-12T10:58:00.979Z,7.90
2019-02-12T11:00:31.876Z,19.27
2019-02-12T11:03:02.829Z,14.43
2019-02-12T11:05:33.729Z,9.13
2019-02-12T11:08:04.652Z,3.07
2019-02-12T11:10:35.567Z,12.33
2019-02-12T11:13:06.847Z,8.43
2019-02-12T11:15:37.746Z,2.37
2019-02-12T11:18:08.815Z,7.77
2019-02-12T11:20:39.727Z,4.30
2019-02-12T11:23:11.029Z,15.50
2019-02-12T11:25:42.106Z,19.97
2019-02-12T11:28:13.048Z,11.67
2019-02-12T11:30:44.028Z,8.77
2019-02-12T11:33:14.992Z,14.27
2019-02-12T11:35:45.886Z,4.40
2019-02-12T11:38:17.767Z,5.43
2019-02-12T11:40:48.524Z,12.57
2019-02-12T11:43:19.515Z,10.20
2019-02-12T11:45:50.482Z,8.57
2019-02-12T11:48:21.450Z,5.53
2019-02-12T11:50:52.231Z,7.67
2019-02-12T11:53:23.024Z,9.23
2019-02-12T11:55:53.992Z,13.67
2019-02-12T11:58:24.903Z,3.40
2019-02-12T12:00:57.426Z,3.13
2019-02-12T12:03:29.941Z,8.27
2019-02-12T12:06:00.694Z,10.80
2019-02-12T12:08:31.681Z,9.20
2019-02-12T12:11:02.642Z,11.03
2019-02-12T12:13:33.645Z,11.60
2019-02-12T12:16:04.534Z,9.90
2019-02-12T12:18:35.429Z,9.10
2019-02-12T12:21:06.323Z,11.70
2019-02-12T12:23:37.394Z,7.47
2019-02-12T12:26:08.362Z,6.20
2019-02-12T12:28:39.287Z,11.23
2019-02-12T12:31:10.112Z,13.27
2019-02-12T12:33:41.005Z,6.97
2019-02-12T12:36:11.892Z,18.00
2019-02-12T12:38:43.797Z,7.30
2019-02-12T12:41:14.823Z,7.97
2019-02-12T12:43:45.670Z,6.40
2019-02-12T12:46:16.422Z,15.20
2019-02-12T12:48:47.292Z,7.97
2019-02-12T12:51:18.272Z,10.33
2019-02-12T12:53:49.270Z,8.60
2019-02-12T12:56:20.113Z,9.40
2019-02-12T12:58:50.953Z,7.27
2019-02-12T13:01:21.768Z,4.63
2019-02-12T13:03:53.587Z,4.33
2019-02-12T13:06:24.538Z,11.90
2019-02-12T13:08:55.467Z,9.10
2019-02-12T13:11:26.770Z,7.43
2019-02-12T13:13:57.750Z,6.40
2019-02-12T13:16:28.710Z,8.00
2019-02-12T13:19:00.517Z,14.63
2019-02-12T13:21:31.489Z,10.47
2019-02-12T13:24:02.487Z,8.30
2019-02-12T13:26:33.439Z,7.87
2019-02-12T13:29:04.373Z,11.30
2019-02-12T13:31:35.192Z,8.90
2019-02-12T13:34:07.004Z,9.73
2019-02-12T13:36:37.959Z,7.43
2019-02-12T13:39:08.947Z,5.87
2019-02-12T13:41:39.898Z,4.97
2019-02-12T13:44:10.672Z,5.50
2019-02-12T13:46:41.550Z,4.67
2019-02-12T13:49:12.414Z,4.13
2019-02-12T13:51:43.295Z,3.80
2019-02-12T13:54:14.274Z,4.17
2019-02-12T13:56:45.021Z,5.90
2019-02-12T13:59:15.948Z,4.93
2019-02-12T14:01:46.688Z,4.80
2019-02-12T14:04:19.437Z,3.83
2019-02-12T14:06:50.403Z,3.70
2019-02-12T14:09:21.320Z,2.87
2019-02-12T14:11:52.148Z,10.23
2019-02-12T14:14:22.930Z,7.27
2019-02-12T14:16:53.892Z,10.50
2019-02-12T14:19:24.909Z,12.27
2019-02-12T14:21:55.809Z,13.13
2019-02-12T14:24:26.605Z,4.00
2019-02-12T14:26:57.345Z,5.50
2019-02-12T14:29:28.255Z,4.80
2019-02-12T14:31:59.209Z,3.30
2019-02-12T14:34:30.980Z,3.23
2019-02-12T14:37:01.712Z,3.30
2019-02-12T14:39:32.631Z,4.30
2019-02-12T14:42:03.442Z,4.40
2019-02-12T14:44:34.420Z,4.13
2019-02-12T14:47:05.394Z,6.13
2019-02-12T14:49:36.327Z,5.27
2019-02-12T14:52:07.227Z,6.57
2019-02-12T14:54:37.999Z,7.83
2019-02-12T14:57:09.803Z,4.83
2019-02-12T14:59:40.706Z,4.67
2019-02-12T15:02:11.666Z,5.47
2019-02-12T15:04:43.781Z,4.37
2019-02-12T15:07:14.600Z,5.37
2019-02-12T15:09:45.599Z,8.37
2019-02-12T15:12:16.412Z,8.37
2019-02-12T15:14:47.275Z,5.93
2019-02-12T15:17:18.237Z,9.60
2019-02-12T15:19:49.242Z,20.40
2019-02-12T15:22:20.207Z,12.50
2019-02-12T15:24:51.053Z,27.73
2019-02-12T15:27:21.879Z,39.83
2019-02-12T15:29:52.731Z,18.43
2019-02-12T15:32:23.705Z,53.33
2019-02-12T15:34:54.731Z,48.23
2019-02-12T15:37:26.957Z,44.30
2019-02-12T15:39:57.760Z,41.80
2019-02-12T15:42:28.514Z,15.83
2019-02-12T15:44:59.504Z,22.50
2019-02-12T15:47:30.407Z,22.63
2019-02-12T15:50:02.319Z,20.77
2019-02-12T15:52:33.074Z,16.83
2019-02-12T15:55:04.605Z,33.73
2019-02-12T15:57:35.598Z,15.60
2019-02-12T16:00:16.100Z,13.87
2019-02-12T16:02:48.234Z,10.30
2019-02-12T16:05:19.291Z,12.77
2019-02-12T16:07:50.048Z,15.43
2019-02-12T16:10:21.346Z,17.40
2019-02-12T16:12:52.310Z,20.97
2019-02-12T16:15:24.623Z,15.70
2019-02-12T16:17:55.826Z,28.40
2019-02-12T16:20:26.687Z,17.13
2019-02-12T16:22:57.441Z,16.60
2019-02-12T16:25:28.434Z,23.93
2019-02-12T16:27:59.396Z,27.47
2019-02-12T16:30:30.324Z,30.70
2019-02-12T16:33:01.227Z,29.03
2019-02-12T16:35:32.337Z,28.57
2019-02-12T16:38:03.302Z,27.63
2019-02-12T16:40:34.292Z,40.90
2019-02-12T16:43:05.458Z,26.10
2019-02-12T16:45:47.548Z,26.10
2019-02-12T16:48:18.305Z,26.40
2019-02-12T16:50:49.256Z,28.73
2019-02-12T16:53:20.234Z,30.80
2019-02-12T16:55:51.230Z,35.50
2019-02-12T16:58:22.195Z,48.70
2019-02-12T17:00:53.275Z,34.97
2019-02-12T17:03:24.249Z,28.17
2019-02-12T17:05:55.994Z,29.40
2019-02-12T17:08:26.822Z,28.47
2019-02-12T17:10:57.821Z,30.13
2019-02-12T17:13:28.785Z,39.63
2019-02-12T17:15:59.776Z,45.23
2019-02-12T17:18:30.682Z,37.57
2019-02-12T17:21:01.602Z,33.67
2019-02-12T17:23:32.366Z,34.40
2019-02-12T17:26:03.359Z,37.33
2019-02-12T17:28:34.326Z,40.33
2019-02-12T17:31:05.254Z,46.23
2019-02-12T17:33:36.079Z,47.23
2019-02-12T17:36:06.880Z,36.07
2019-02-12T17:38:37.767Z,29.90
2019-02-12T17:41:08.770Z,36.93
2019-02-12T17:43:39.755Z,40.80
2019-02-12T17:46:10.801Z,42.63
2019-02-12T17:48:41.767Z,43.63
2019-02-12T17:51:13.531Z,50.07
2019-02-12T17:53:44.496Z,40.57
2019-02-12T17:56:15.494Z,40.30
2019-02-12T17:58:46.252Z,35.70
2019-02-12T18:01:17.108Z,29.17
2019-02-12T18:03:47.930Z,24.83
2019-02-12T18:06:19.026Z,24.17
2019-02-12T18:08:49.942Z,24.80
2019-02-12T18:11:20.874Z,21.53
2019-02-12T18:13:51.790Z,19.83
2019-02-12T18:16:22.727Z,21.10
2019-02-12T18:18:53.633Z,22.20
2019-02-12T18:21:24.725Z,23.37
2019-02-12T18:23:55.627Z,20.70
2019-02-12T18:26:33.199Z,19.70
2019-02-12T18:28:59.163Z,19.03
2019-02-12T18:31:30.099Z,22.93
2019-02-12T18:34:01.006Z,22.13
2019-02-12T18:36:31.973Z,21.67
2019-02-12T18:39:03.549Z,21.97
2019-02-12T18:41:34.480Z,27.07
2019-02-12T18:44:05.389Z,28.53
2019-02-12T18:46:36.391Z,27.60
2019-02-12T18:49:07.300Z,25.77
2019-02-12T18:51:38.335Z,25.77
2019-02-12T18:54:09.313Z,28.93
2019-02-12T18:56:41.838Z,30.43
2019-02-12T18:59:12.915Z,26.70
2019-02-12T19:01:44.318Z,26.17
2019-02-12T19:04:15.243Z,23.47
2019-02-12T19:06:46.975Z,26.90
2019-02-12T19:09:17.884Z,27.77
2019-02-12T19:11:54.430Z,25.50
2019-02-12T19:14:21.406Z,21.30
2019-02-12T19:16:52.345Z,20.83
2019-02-12T19:19:23.268Z,21.43
2019-02-12T19:21:54.245Z,22.70
2019-02-12T19:24:25.148Z,24.00
2019-02-12T19:26:56.078Z,21.73
2019-02-12T19:29:26.987Z,22.60
2019-02-12T19:31:59.507Z,22.57
2019-02-12T19:34:30.499Z,23.47
2019-02-12T19:37:01.455Z,22.50
2019-02-12T19:39:32.433Z,23.47
2019-02-12T19:42:03.449Z,26.13
2019-02-12T19:44:34.358Z,26.27
2019-02-12T19:47:05.295Z,23.20
2019-02-12T19:49:36.204Z,20.63
2019-02-12T19:52:07.146Z,18.67
2019-02-12T19:54:38.058Z,17.60
2019-02-12T19:57:12.653Z,17.37
2019-02-12T19:59:43.580Z,15.70
2019-02-12T20:02:14.497Z,17.40
2019-02-12T20:04:45.401Z,16.67
2019-02-12T20:07:16.401Z,15.97
2019-02-12T20:09:47.293Z,15.33
2019-02-12T20:12:18.225Z,14.80
2019-02-12T20:14:49.157Z,16.87
2019-02-12T20:17:20.168Z,13.73
2019-02-12T20:19:51.077Z,14.50
2019-02-12T20:22:22.129Z,16.10
2019-02-12T20:24:53.041Z,14.90
2019-02-12T20:27:23.968Z,18.17
2019-02-12T20:29:54.890Z,20.17
2019-02-12T20:32:25.892Z,20.17
2019-02-12T20:34:56.799Z,24.80
2019-02-12T20:37:27.760Z,43.80
2019-02-12T20:39:58.660Z,28.07
2019-02-12T20:42:29.593Z,23.20
2019-02-12T20:45:00.499Z,23.90
2019-02-12T20:47:31.425Z,24.77
2019-02-12T20:50:02.339Z,26.60
2019-02-12T20:52:33.294Z,24.43
2019-02-12T20:55:04.303Z,24.70
2019-02-12T20:57:35.226Z,23.03
2019-02-12T21:00:11.654Z,20.40
2019-02-12T21:02:42.954Z,18.33
2019-02-12T21:05:15.376Z,17.20
2019-02-12T21:07:46.412Z,16.73
2019-02-12T21:10:21.280Z,17.00
2019-02-12T21:12:52.656Z,17.23
2019-02-12T21:15:25.923Z,18.47
2019-02-12T21:17:56.862Z,18.87
2019-02-12T21:20:27.734Z,18.10
2019-02-12T21:22:58.777Z,18.73
2019-02-12T21:25:29.745Z,19.13
2019-02-12T21:28:00.665Z,20.13
2019-02-12T21:30:34.667Z,18.87
2019-02-12T21:33:05.599Z,18.77
2019-02-12T21:35:36.582Z,20.30
2019-02-12T21:38:09.171Z,21.83
2019-02-12T21:40:40.076Z,21.07
2019-02-12T21:43:11.012Z,22.63
2019-02-12T21:45:44.155Z,22.63
2019-02-12T21:48:16.989Z,25.37
2019-02-12T21:50:47.893Z,24.27
2019-02-12T21:53:18.919Z,22.60
2019-02-12T21:55:49.831Z,23.50
2019-02-12T21:58:20.765Z,23.23
2019-02-12T22:00:51.704Z,24.47
2019-02-12T22:03:22.610Z,24.40
2019-02-12T22:05:53.506Z,23.33
2019-02-12T22:08:25.254Z,25.37
2019-02-12T22:10:56.165Z,23.93
2019-02-12T22:13:27.169Z,24.97
2019-02-12T22:15:58.065Z,25.13
2019-02-12T22:18:29.335Z,32.57
2019-02-12T22:21:00.239Z,31.63
2019-02-12T22:23:31.197Z,32.33
2019-02-12T22:26:02.195Z,28.63
2019-02-12T22:28:33.127Z,29.90
2019-02-12T22:31:04.031Z,28.63
2019-02-12T22:33:34.974Z,27.37
2019-02-12T22:36:05.871Z,27.73
2019-02-12T22:38:36.913Z,28.10
2019-02-12T22:41:07.835Z,28.97
2019-02-12T22:43:38.774Z,29.13
2019-02-12T22:46:09.674Z,26.63
2019-02-12T22:48:40.615Z,24.13
2019-02-12T22:51:11.519Z,22.33
2019-02-12T22:53:42.524Z,23.83
2019-02-12T22:56:13.428Z,25.07
2019-02-12T22:58:44.362Z,24.07
2019-02-12T23:01:15.275Z,23.40
2019-02-12T23:03:46.270Z,19.43
2019-02-12T23:06:17.179Z,18.50
2019-02-12T23:08:48.949Z,18.47
2019-02-12T23:11:19.846Z,17.20
2019-02-12T23:13:50.798Z,15.10
2019-02-12T23:16:21.707Z,15.30
2019-02-12T23:18:52.642Z,16.40
2019-02-12T23:21:23.973Z,17.40
2019-02-12T23:23:54.934Z,19.33
2019-02-12T23:26:25.843Z,17.73
2019-02-12T23:28:56.781Z,16.93
2019-02-12T23:31:27.690Z,17.20
2019-02-12T23:33:58.689Z,16.53
2019-02-12T23:36:29.604Z,17.10
2019-02-12T23:39:00.558Z,17.40
2019-02-12T23:41:31.463Z,15.60
2019-02-12T23:44:02.400Z,16.67
2019-02-12T23:46:33.308Z,17.33
2019-02-12T23:49:04.258Z,16.43
2019-02-12T23:51:35.155Z,15.80
2019-02-12T23:54:06.126Z,15.73
2019-02-12T23:56:37.043Z,15.20
2019-02-12T23:59:08.010Z,14.13
